Verbier, Switzerland
Current Conditions -  °F | °C
As of 10:50 AM on Friday 31 Oct 2014 (Local Time) from LSGS Reporting Station
Clear Clear  
Wind Chill: 52°   Ceiling: Unl
Heat Index: 52°   Visibility: 6mi
Dew Point: 41°   Wind: 3mph
Humidity: 67%   Direction: 100°E
Pressure: 30.33"   Gusts: NA
Location:  46.1°N, 7.23°E
Report Text: LSGS 310950Z 10003KT 050V140 CAVOK 11/05 Q1027
Loading
Personal Weather Stations






























Interactive Weather Map
Tropical Storm Tracking
New forecast layout! Learn more

10-Day Weather Forecast

Advertisements
Track Severe Weather on mobile